createdAt,value
2023-09-14T00:01:30.270Z,89.90
2023-09-14T00:03:53.797Z,89.60
2023-09-14T00:06:17.099Z,89.60
2023-09-14T00:08:41.684Z,89.50
2023-09-14T00:11:05.937Z,89.80
2023-09-14T00:13:29.275Z,90.10
2023-09-14T00:15:52.930Z,89.80
2023-09-14T00:18:16.562Z,89.70
2023-09-14T00:20:39.801Z,89.90
2023-09-14T00:23:04.814Z,89.90
2023-09-14T00:25:29.517Z,89.60
2023-09-14T00:27:54.762Z,90.00
2023-09-14T00:30:18.045Z,89.90
2023-09-14T00:32:41.956Z,90.00
2023-09-14T00:35:06.545Z,90.30
2023-09-14T00:37:29.799Z,90.40
2023-09-14T00:39:53.637Z,90.40
2023-09-14T00:42:18.231Z,90.50
2023-09-14T00:44:41.436Z,90.40
2023-09-14T00:47:29.646Z,90.40
2023-09-14T00:49:52.909Z,90.30
2023-09-14T00:52:16.702Z,90.30
2023-09-14T00:54:40.738Z,90.50
2023-09-14T00:57:04.156Z,89.80
2023-09-14T00:59:28.758Z,90.10
2023-09-14T01:01:52.067Z,90.20
2023-09-14T01:04:15.811Z,89.80
2023-09-14T01:06:39.671Z,90.10
2023-09-14T01:09:28.252Z,90.20
2023-09-14T01:11:53.028Z,90.10
2023-09-14T01:14:29.629Z,90.40
2023-09-14T01:17:00.471Z,90.00
2023-09-14T01:19:42.162Z,90.10
2023-09-14T01:22:30.027Z,90.60
2023-09-14T01:25:00.533Z,90.60
2023-09-14T01:27:26.303Z,90.50
2023-09-14T01:29:49.528Z,90.90
2023-09-14T01:32:12.841Z,90.80
2023-09-14T01:34:36.301Z,90.70
2023-09-14T01:37:02.234Z,90.60
2023-09-14T01:39:26.758Z,90.70
2023-09-14T01:41:55.853Z,90.50
2023-09-14T01:44:21.358Z,90.70
2023-09-14T01:46:46.445Z,90.50
2023-09-14T01:49:09.804Z,90.80
2023-09-14T01:51:33.418Z,90.90
2023-09-14T01:53:57.080Z,91.10
2023-09-14T01:56:19.857Z,91.10
2023-09-14T01:58:43.617Z,91.10
2023-09-14T02:01:09.292Z,91.00
2023-09-14T02:03:32.967Z,91.00
2023-09-14T02:05:59.836Z,90.90
2023-09-14T02:08:23.294Z,91.20
2023-09-14T02:10:49.971Z,91.10
2023-09-14T02:13:13.258Z,91.10
2023-09-14T02:15:36.467Z,91.10
2023-09-14T02:18:02.346Z,90.90
2023-09-14T02:20:25.643Z,90.90
2023-09-14T02:22:48.792Z,91.20
2023-09-14T02:25:12.092Z,90.90
2023-09-14T02:27:36.220Z,91.20
2023-09-14T02:29:59.761Z,91.00
2023-09-14T02:32:23.681Z,91.20
2023-09-14T02:34:49.153Z,91.30
2023-09-14T02:37:12.501Z,91.20
2023-09-14T02:39:36.322Z,91.20
2023-09-14T02:41:59.514Z,91.30
2023-09-14T02:44:22.902Z,90.90
2023-09-14T02:46:46.234Z,90.70
2023-09-14T02:49:09.601Z,90.60
2023-09-14T02:51:34.189Z,90.70
2023-09-14T02:53:57.399Z,90.50
2023-09-14T02:56:20.672Z,90.70
2023-09-14T02:58:44.642Z,91.10
2023-09-14T03:01:10.056Z,91.00
2023-09-14T03:03:34.867Z,91.20
2023-09-14T03:05:59.050Z,91.30
2023-09-14T03:08:23.631Z,91.40
2023-09-14T03:10:46.794Z,91.20
2023-09-14T03:13:10.367Z,91.40
2023-09-14T03:15:35.835Z,91.10
2023-09-14T03:17:59.635Z,91.40
2023-09-14T03:20:23.154Z,91.50
2023-09-14T03:22:46.337Z,91.30
2023-09-14T03:25:11.614Z,91.40
2023-09-14T03:27:34.833Z,91.60
2023-09-14T03:29:59.111Z,91.70
2023-09-14T03:32:22.351Z,91.50
2023-09-14T03:34:46.225Z,91.40
2023-09-14T03:37:09.503Z,91.20
2023-09-14T03:39:33.875Z,91.30
2023-09-14T03:41:58.955Z,91.40
2023-09-14T03:44:22.229Z,91.30
2023-09-14T03:46:45.547Z,91.40
2023-09-14T03:49:09.117Z,91.30
2023-09-14T03:51:32.352Z,91.20
2023-09-14T03:53:55.606Z,91.10
2023-09-14T03:56:18.861Z,91.20
2023-09-14T03:58:44.255Z,91.30
2023-09-14T04:01:08.005Z,91.40
2023-09-14T04:03:31.754Z,91.30
2023-09-14T04:05:55.052Z,91.40
2023-09-14T04:08:19.523Z,91.50
2023-09-14T04:10:43.039Z,91.50
2023-09-14T04:13:27.326Z,91.20
2023-09-14T04:15:52.240Z,91.40
2023-09-14T04:18:15.448Z,91.20
2023-09-14T04:20:38.743Z,91.90
2023-09-14T04:23:01.952Z,91.40
2023-09-14T04:25:25.254Z,91.50
2023-09-14T04:27:50.116Z,91.30
2023-09-14T04:30:15.480Z,91.70
2023-09-14T04:32:40.066Z,91.80
2023-09-14T04:35:04.627Z,91.80
2023-09-14T04:37:28.122Z,91.40
2023-09-14T04:39:51.352Z,91.30
2023-09-14T04:42:15.335Z,91.50
2023-09-14T04:44:38.563Z,91.30
2023-09-14T04:47:01.817Z,91.60
2023-09-14T04:49:26.530Z,91.60
2023-09-14T04:51:50.462Z,91.60
2023-09-14T04:54:14.069Z,91.40
2023-09-14T04:56:37.896Z,91.40
2023-09-14T04:59:01.371Z,91.50
2023-09-14T05:01:24.759Z,91.90
2023-09-14T05:03:48.499Z,91.80
2023-09-14T05:06:13.394Z,91.90
2023-09-14T05:08:36.627Z,91.80
2023-09-14T05:11:01.217Z,91.80
2023-09-14T05:13:26.149Z,91.50
2023-09-14T05:15:50.512Z,91.70
2023-09-14T05:18:17.505Z,91.80
2023-09-14T05:20:45.058Z,91.70
2023-09-14T05:23:09.723Z,91.90
2023-09-14T05:25:33.047Z,91.90
2023-09-14T05:27:56.381Z,91.90
2023-09-14T05:30:22.730Z,91.80
2023-09-14T05:32:46.248Z,92.00
2023-09-14T05:35:11.694Z,91.90
2023-09-14T05:37:35.082Z,92.00
2023-09-14T05:39:59.910Z,92.30
2023-09-14T05:42:24.538Z,92.00
2023-09-14T05:44:49.115Z,92.00
2023-09-14T05:47:12.588Z,92.30
2023-09-14T05:49:35.894Z,92.50
2023-09-14T05:51:59.984Z,92.40
2023-09-14T05:54:24.227Z,92.30
2023-09-14T05:56:49.183Z,92.30
2023-09-14T05:59:25.722Z,92.30
2023-09-14T06:01:55.206Z,92.10
2023-09-14T06:04:19.641Z,92.30
2023-09-14T06:06:43.484Z,92.20
2023-09-14T06:09:06.999Z,92.30
2023-09-14T06:11:30.674Z,92.20
2023-09-14T06:13:55.307Z,92.00
2023-09-14T06:16:18.574Z,92.30
2023-09-14T06:18:41.873Z,92.10
2023-09-14T06:21:05.287Z,92.30
2023-09-14T06:23:28.998Z,92.10
2023-09-14T06:25:53.905Z,92.00
2023-09-14T06:28:17.308Z,92.00
2023-09-14T06:30:41.910Z,92.20
2023-09-14T06:33:06.811Z,92.30
2023-09-14T06:35:30.301Z,91.60
2023-09-14T06:37:53.496Z,91.20
2023-09-14T06:40:17.447Z,91.00
2023-09-14T06:42:40.758Z,90.90
2023-09-14T06:45:04.520Z,90.60
2023-09-14T06:47:29.302Z,90.60
2023-09-14T06:49:52.480Z,90.70
2023-09-14T06:52:16.124Z,90.20
2023-09-14T06:54:40.262Z,89.20
2023-09-14T06:57:04.675Z,89.30
2023-09-14T06:59:30.086Z,88.80
2023-09-14T07:01:53.399Z,89.10
2023-09-14T07:04:18.187Z,89.40
2023-09-14T07:06:41.817Z,87.80
2023-09-14T07:09:07.647Z,87.60
2023-09-14T07:11:31.063Z,88.50
2023-09-14T07:13:54.309Z,87.50
2023-09-14T07:16:17.650Z,86.80
2023-09-14T07:18:41.195Z,85.70
2023-09-14T07:21:06.355Z,85.90
2023-09-14T07:23:30.353Z,85.40
2023-09-14T07:25:53.720Z,84.70
2023-09-14T07:28:17.734Z,84.60
2023-09-14T07:30:41.111Z,85.20
2023-09-14T07:33:05.145Z,84.50
2023-09-14T07:35:28.505Z,84.20
2023-09-14T07:37:53.587Z,83.40
2023-09-14T07:40:17.773Z,83.80
2023-09-14T07:42:41.216Z,83.10
2023-09-14T07:45:04.912Z,82.50
2023-09-14T07:47:30.851Z,82.20
2023-09-14T07:49:54.505Z,81.80
2023-09-14T07:52:17.924Z,82.20
2023-09-14T07:54:42.537Z,81.00
2023-09-14T07:57:06.364Z,79.90
2023-09-14T07:59:30.804Z,79.60
2023-09-14T08:01:53.937Z,82.40
2023-09-14T08:04:17.826Z,81.20
2023-09-14T08:06:41.100Z,80.90
2023-09-14T08:09:05.092Z,81.50
2023-09-14T08:11:29.784Z,81.10
2023-09-14T08:13:53.493Z,83.00
2023-09-14T08:16:16.838Z,79.20
2023-09-14T08:18:42.669Z,80.00
2023-09-14T08:21:05.996Z,78.60
2023-09-14T08:23:30.348Z,79.40
2023-09-14T08:25:53.574Z,78.60
2023-09-14T08:28:19.957Z,78.20
2023-09-14T08:30:43.757Z,76.00
2023-09-14T08:33:07.443Z,76.80
2023-09-14T08:35:32.648Z,79.00
2023-09-14T08:37:56.359Z,78.70
2023-09-14T08:40:20.429Z,80.20
2023-09-14T08:42:45.516Z,77.70
2023-09-14T08:45:14.716Z,73.90
2023-09-14T08:47:39.179Z,74.60
2023-09-14T08:50:04.360Z,74.80
2023-09-14T08:52:27.832Z,74.40
2023-09-14T08:54:51.642Z,77.40
2023-09-14T08:57:15.044Z,73.90
2023-09-14T08:59:39.561Z,72.40
2023-09-14T09:02:05.783Z,73.60
2023-09-14T09:04:29.134Z,74.30
2023-09-14T09:06:53.645Z,73.10
2023-09-14T09:09:20.150Z,71.80
2023-09-14T09:11:43.706Z,73.70
2023-09-14T09:14:07.012Z,74.10
2023-09-14T09:16:30.305Z,72.10
2023-09-14T09:19:08.492Z,73.20
2023-09-14T09:21:35.165Z,74.10
2023-09-14T09:23:58.611Z,73.60
2023-09-14T09:26:22.337Z,70.50
2023-09-14T09:28:49.393Z,70.20
2023-09-14T09:31:12.721Z,71.70
2023-09-14T09:33:37.590Z,68.50
2023-09-14T09:36:02.615Z,69.60
2023-09-14T09:38:28.824Z,69.00
2023-09-14T09:40:52.309Z,67.50
2023-09-14T09:43:19.738Z,70.00
2023-09-14T09:45:43.187Z,67.00
2023-09-14T09:48:08.460Z,67.50
2023-09-14T09:50:32.589Z,71.60
2023-09-14T09:52:57.361Z,69.50
2023-09-14T09:55:29.673Z,68.60
2023-09-14T09:57:54.652Z,68.50
2023-09-14T10:00:20.795Z,65.10
2023-09-14T10:02:44.222Z,64.30
2023-09-14T10:05:08.861Z,65.00
2023-09-14T10:07:37.804Z,63.20
2023-09-14T10:10:02.687Z,65.40
2023-09-14T10:12:29.246Z,67.20
2023-09-14T10:14:53.763Z,65.50
2023-09-14T10:17:24.477Z,66.90
2023-09-14T10:19:49.033Z,63.80
2023-09-14T10:22:13.098Z,59.70
2023-09-14T10:24:38.159Z,59.00
2023-09-14T10:27:03.718Z,61.20
2023-09-14T10:29:28.910Z,59.70
2023-09-14T10:31:55.419Z,61.90
2023-09-14T10:34:19.837Z,59.30
2023-09-14T10:36:44.843Z,62.10
2023-09-14T10:39:08.535Z,59.90
2023-09-14T10:41:31.819Z,58.00
2023-09-14T10:43:57.198Z,62.70
2023-09-14T10:46:24.981Z,60.20
2023-09-14T10:48:48.995Z,57.00
2023-09-14T10:51:14.240Z,63.50
2023-09-14T10:53:38.106Z,62.30
2023-09-14T10:56:01.441Z,61.30
2023-09-14T10:58:25.770Z,59.70
2023-09-14T11:01:17.446Z,56.70
2023-09-14T11:04:13.315Z,58.80
2023-09-14T11:06:46.007Z,59.30
2023-09-14T11:09:09.716Z,62.50
2023-09-14T11:11:41.261Z,63.60
2023-09-14T11:14:10.429Z,65.20
2023-09-14T11:16:45.682Z,61.10
2023-09-14T11:19:09.820Z,66.60
2023-09-14T11:21:48.868Z,64.20
2023-09-14T11:24:14.626Z,64.30
2023-09-14T11:26:46.095Z,61.60
2023-09-14T11:29:12.694Z,63.90
2023-09-14T11:31:58.813Z,63.10
2023-09-14T11:34:29.060Z,63.60
2023-09-14T11:36:57.632Z,64.60
2023-09-14T11:39:25.330Z,65.40
2023-09-14T11:42:04.819Z,67.50
2023-09-14T11:44:52.277Z,67.90
2023-09-14T11:47:21.077Z,66.30
2023-09-14T11:49:48.624Z,67.30
2023-09-14T11:52:14.453Z,67.30
2023-09-14T11:54:37.729Z,67.90
2023-09-14T11:57:01.553Z,66.90
2023-09-14T11:59:32.238Z,66.10
2023-09-14T12:01:55.704Z,68.10
2023-09-14T12:04:19.013Z,67.20
2023-09-14T12:06:43.690Z,67.80
2023-09-14T12:09:16.244Z,65.10
2023-09-14T12:11:48.567Z,68.80
2023-09-14T12:14:11.823Z,65.60
2023-09-14T12:16:35.171Z,67.40
2023-09-14T12:18:58.569Z,65.50
2023-09-14T12:21:25.235Z,67.40
2023-09-14T12:23:53.107Z,65.00
2023-09-14T12:26:18.327Z,67.90
2023-09-14T12:28:42.543Z,66.60
2023-09-14T12:31:05.970Z,62.80
2023-09-14T12:33:30.200Z,64.40
2023-09-14T12:35:53.880Z,63.30
2023-09-14T12:38:18.015Z,64.20
2023-09-14T12:40:42.689Z,65.10
2023-09-14T12:43:08.253Z,62.70
2023-09-14T12:45:33.931Z,65.40
2023-09-14T12:47:57.194Z,65.50
2023-09-14T12:50:21.338Z,62.50
2023-09-14T12:52:45.710Z,61.80
2023-09-14T12:55:16.079Z,61.20
2023-09-14T12:57:40.731Z,58.10
2023-09-14T13:00:13.028Z,58.80
2023-09-14T13:02:37.017Z,62.10
2023-09-14T13:05:00.343Z,61.90
2023-09-14T13:07:24.093Z,65.50
2023-09-14T13:09:47.278Z,65.20
2023-09-14T13:12:10.537Z,62.70
2023-09-14T13:14:35.881Z,63.80
2023-09-14T13:16:59.764Z,62.70
2023-09-14T13:19:26.369Z,63.60
2023-09-14T13:21:51.024Z,67.70
2023-09-14T13:24:14.390Z,64.90
2023-09-14T13:26:37.597Z,61.60
2023-09-14T13:29:00.823Z,61.10
2023-09-14T13:31:25.527Z,63.60
2023-09-14T13:33:48.813Z,64.70
2023-09-14T13:36:12.682Z,64.10
2023-09-14T13:38:36.033Z,63.40
2023-09-14T13:40:59.291Z,64.20
2023-09-14T13:43:22.500Z,58.50
2023-09-14T13:45:45.778Z,61.40
2023-09-14T13:48:10.719Z,59.50
2023-09-14T13:50:34.047Z,60.80
2023-09-14T13:52:57.237Z,59.60
2023-09-14T13:55:20.838Z,57.80
2023-09-14T13:57:44.977Z,57.80
2023-09-14T14:00:12.515Z,52.70
2023-09-14T14:02:35.774Z,55.80
2023-09-14T14:05:00.881Z,56.30
2023-09-14T14:07:24.103Z,57.20
2023-09-14T14:09:47.967Z,54.70
2023-09-14T14:12:12.091Z,57.90
2023-09-14T14:14:37.993Z,55.80
2023-09-14T14:17:01.758Z,55.40
2023-09-14T14:19:25.013Z,56.30
2023-09-14T14:21:49.872Z,57.60
2023-09-14T14:24:13.204Z,56.70
2023-09-14T14:26:36.455Z,60.10
2023-09-14T14:28:59.700Z,56.40
2023-09-14T14:31:22.962Z,59.20
2023-09-14T14:33:46.449Z,58.60
2023-09-14T14:36:09.638Z,58.40
2023-09-14T14:38:34.241Z,58.50
2023-09-14T14:43:23.579Z,58.90
2023-09-14T14:45:46.804Z,58.80
2023-09-14T14:48:10.371Z,56.90
2023-09-14T14:50:33.985Z,58.50
2023-09-14T14:52:57.318Z,58.70
2023-09-14T14:55:23.031Z,56.10
2023-09-14T14:57:46.534Z,57.30
2023-09-14T15:00:11.045Z,56.30
2023-09-14T15:02:34.348Z,58.60
2023-09-14T15:04:57.713Z,56.40
2023-09-14T15:07:21.026Z,56.80
2023-09-14T15:09:44.212Z,54.30
2023-09-14T15:12:09.341Z,52.70
2023-09-14T15:14:32.640Z,52.50
2023-09-14T15:16:56.296Z,56.50
2023-09-14T15:19:19.906Z,54.50
2023-09-14T15:21:43.164Z,55.50
2023-09-14T15:24:06.918Z,57.80
2023-09-14T15:26:30.213Z,57.40
2023-09-14T15:28:56.179Z,55.20
2023-09-14T15:31:20.703Z,53.10
2023-09-14T15:33:44.274Z,56.90
2023-09-14T15:36:08.747Z,56.00
2023-09-14T15:38:32.149Z,56.80
2023-09-14T15:40:56.152Z,55.80
2023-09-14T15:43:19.327Z,55.40
2023-09-14T15:45:44.790Z,56.20
2023-09-14T15:48:11.182Z,55.60
2023-09-14T15:50:34.339Z,56.70
2023-09-14T15:52:57.812Z,55.00
2023-09-14T15:55:31.154Z,55.50
2023-09-14T15:57:55.857Z,56.60
2023-09-14T16:00:19.957Z,58.80
2023-09-14T16:02:44.533Z,55.00
2023-09-14T16:05:09.468Z,54.80
2023-09-14T16:07:33.248Z,55.10
2023-09-14T16:09:57.581Z,59.60
2023-09-14T16:12:20.716Z,57.90
2023-09-14T16:14:43.791Z,53.40
2023-09-14T16:17:07.366Z,57.80
2023-09-14T16:19:32.165Z,56.90
2023-09-14T16:21:55.423Z,58.60
2023-09-14T16:24:20.366Z,59.30
2023-09-14T16:26:43.581Z,59.70
2023-09-14T16:29:06.972Z,63.20
2023-09-14T16:31:30.201Z,58.50
2023-09-14T16:33:54.481Z,62.40
2023-09-14T16:36:19.096Z,62.30
2023-09-14T16:38:44.471Z,64.60
2023-09-14T16:41:09.475Z,63.10
2023-09-14T16:43:32.742Z,64.30
2023-09-14T16:45:56.178Z,62.20
2023-09-14T16:48:19.787Z,63.90
2023-09-14T16:50:43.012Z,67.60
2023-09-14T16:53:09.191Z,65.50
2023-09-14T16:55:32.445Z,66.20
2023-09-14T16:57:56.489Z,68.10
2023-09-14T17:00:19.795Z,66.10
2023-09-14T17:02:43.317Z,68.10
2023-09-14T17:05:10.272Z,66.70
2023-09-14T17:07:37.457Z,67.10
2023-09-14T17:10:03.453Z,68.50
2023-09-14T17:12:26.987Z,68.40
2023-09-14T17:14:50.673Z,68.80
2023-09-14T17:17:15.098Z,67.70
2023-09-14T17:19:38.558Z,69.20
2023-09-14T17:22:02.450Z,69.40
2023-09-14T17:24:25.859Z,68.50
2023-09-14T17:26:50.504Z,69.40
2023-09-14T17:29:14.221Z,68.70
2023-09-14T17:31:37.748Z,70.10
2023-09-14T17:34:01.624Z,70.80
2023-09-14T17:36:24.927Z,70.50
2023-09-14T17:38:48.914Z,70.20
2023-09-14T17:41:12.230Z,68.80
2023-09-14T17:43:38.352Z,72.30
2023-09-14T17:46:02.592Z,71.00
2023-09-14T17:48:26.450Z,73.10
2023-09-14T17:50:53.573Z,72.80
2023-09-14T17:53:16.739Z,71.40
2023-09-14T17:55:40.101Z,73.10
2023-09-14T17:58:03.474Z,73.30
2023-09-14T18:00:28.512Z,73.70
2023-09-14T18:02:51.713Z,74.10
2023-09-14T18:05:15.685Z,74.10
2023-09-14T18:07:38.881Z,74.80
2023-09-14T18:10:02.548Z,74.80
2023-09-14T18:12:25.771Z,75.00
2023-09-14T18:14:49.144Z,75.20
2023-09-14T18:17:13.784Z,75.80
2023-09-14T18:19:37.873Z,76.50
2023-09-14T18:22:01.221Z,76.60
2023-09-14T18:24:24.426Z,76.90
2023-09-14T18:26:48.047Z,77.20
2023-09-14T18:29:14.045Z,77.30
2023-09-14T18:31:37.399Z,77.70
2023-09-14T18:34:02.649Z,78.10
2023-09-14T18:36:26.306Z,78.60
2023-09-14T18:38:50.017Z,78.00
2023-09-14T18:41:15.336Z,78.30
2023-09-14T18:43:39.401Z,78.10
2023-09-14T18:46:02.784Z,78.50
2023-09-14T18:48:26.166Z,79.10
2023-09-14T18:50:51.990Z,78.90
2023-09-14T18:53:15.591Z,78.90
2023-09-14T18:55:39.045Z,79.20
2023-09-14T18:58:02.426Z,78.70
2023-09-14T19:00:25.887Z,78.40
2023-09-14T19:02:49.168Z,79.00
2023-09-14T19:05:13.219Z,79.40
2023-09-14T19:07:38.254Z,78.00
2023-09-14T19:10:02.201Z,78.80
2023-09-14T19:12:25.383Z,78.70
2023-09-14T19:14:49.643Z,78.30
2023-09-14T19:17:13.261Z,79.00
2023-09-14T19:19:36.460Z,78.70
2023-09-14T19:22:00.822Z,78.50
2023-09-14T19:24:25.355Z,80.00
2023-09-14T19:26:49.401Z,79.40
2023-09-14T19:29:12.604Z,79.50
2023-09-14T19:31:35.819Z,79.20
2023-09-14T19:33:59.086Z,79.60
2023-09-14T19:36:24.454Z,80.30
2023-09-14T19:38:48.445Z,79.10
2023-09-14T19:41:13.815Z,79.50
2023-09-14T19:43:37.101Z,80.10
2023-09-14T19:46:00.649Z,79.40
2023-09-14T19:48:23.974Z,79.10
2023-09-14T19:50:51.821Z,79.80
2023-09-14T19:53:19.070Z,79.40
2023-09-14T19:55:47.403Z,80.30
2023-09-14T19:58:11.931Z,81.20
2023-09-14T20:00:35.225Z,80.10
2023-09-14T20:02:58.627Z,80.90
2023-09-14T20:05:24.117Z,81.90
2023-09-14T20:07:48.060Z,81.50
2023-09-14T20:10:11.770Z,81.90
2023-09-14T20:12:35.954Z,82.40
2023-09-14T20:15:00.861Z,82.40
2023-09-14T20:17:24.226Z,82.30
2023-09-14T20:19:48.065Z,82.50
2023-09-14T20:22:11.479Z,82.90
2023-09-14T20:24:35.867Z,83.00
2023-09-14T20:27:00.300Z,83.20
2023-09-14T20:29:23.485Z,83.80
2023-09-14T20:31:48.023Z,83.70
2023-09-14T20:34:12.059Z,83.90
2023-09-14T20:36:36.481Z,84.20
2023-09-14T20:39:00.678Z,84.30
2023-09-14T20:41:27.949Z,84.50
2023-09-14T20:43:51.174Z,84.10
2023-09-14T20:46:14.697Z,84.20
2023-09-14T20:48:39.995Z,84.20
2023-09-14T20:51:08.864Z,84.20
2023-09-14T20:53:56.806Z,84.30
2023-09-14T20:56:20.097Z,84.30
2023-09-14T20:58:43.509Z,84.50
2023-09-14T21:01:10.284Z,84.40
2023-09-14T21:03:34.167Z,84.50
2023-09-14T21:06:02.821Z,84.60
2023-09-14T21:08:27.141Z,84.60
2023-09-14T21:10:50.356Z,84.80
2023-09-14T21:13:13.631Z,85.00
2023-09-14T21:15:38.052Z,85.00
2023-09-14T21:18:02.646Z,85.20
2023-09-14T21:20:25.923Z,85.20
2023-09-14T21:22:51.645Z,85.20
2023-09-14T21:25:15.450Z,85.40
2023-09-14T21:27:39.012Z,85.80
2023-09-14T21:30:02.280Z,86.00
2023-09-14T21:32:25.509Z,86.20
2023-09-14T21:34:48.847Z,86.30
2023-09-14T21:37:13.932Z,86.30
2023-09-14T21:39:38.608Z,86.30
2023-09-14T21:42:01.851Z,86.00
2023-09-14T21:44:25.084Z,86.20
2023-09-14T21:46:48.256Z,86.50
2023-09-14T21:49:34.381Z,86.60
2023-09-14T21:51:57.628Z,86.50
2023-09-14T21:54:21.270Z,86.60
2023-09-14T21:56:47.994Z,86.80
2023-09-14T21:59:11.153Z,87.20
2023-09-14T22:01:34.438Z,87.20
2023-09-14T22:03:58.711Z,87.40
2023-09-14T22:06:25.410Z,87.40
2023-09-14T22:08:49.121Z,87.60
2023-09-14T22:11:12.442Z,87.20
2023-09-14T22:13:37.257Z,87.30
2023-09-14T22:16:01.669Z,87.60
2023-09-14T22:18:26.672Z,87.80
2023-09-14T22:20:49.905Z,87.70
2023-09-14T22:23:13.606Z,87.50
2023-09-14T22:25:39.199Z,87.30
2023-09-14T22:28:02.475Z,87.40
2023-09-14T22:30:27.432Z,87.50
2023-09-14T22:32:50.757Z,87.60
2023-09-14T22:35:14.425Z,87.80
2023-09-14T22:37:49.495Z,88.00
2023-09-14T22:40:14.890Z,87.80
2023-09-14T22:42:38.086Z,87.80
2023-09-14T22:45:01.769Z,88.00
2023-09-14T22:47:26.332Z,88.20
2023-09-14T22:49:49.539Z,87.90
2023-09-14T22:52:12.791Z,87.60
2023-09-14T22:54:37.041Z,87.70
2023-09-14T22:57:01.096Z,87.90
2023-09-14T22:59:24.467Z,87.90
2023-09-14T23:01:48.569Z,88.00
2023-09-14T23:04:13.447Z,88.00
2023-09-14T23:06:36.610Z,88.00
2023-09-14T23:08:59.848Z,88.10
2023-09-14T23:11:31.553Z,88.10
2023-09-14T23:13:55.279Z,88.30
2023-09-14T23:16:19.381Z,88.20
2023-09-14T23:18:43.567Z,88.20
2023-09-14T23:21:11.589Z,88.40
2023-09-14T23:23:34.788Z,88.40
2023-09-14T23:25:58.097Z,88.30
2023-09-14T23:28:22.175Z,88.20
2023-09-14T23:30:45.362Z,88.40
2023-09-14T23:33:09.503Z,88.30
2023-09-14T23:35:34.080Z,88.30
2023-09-14T23:37:58.869Z,88.30
2023-09-14T23:40:34.554Z,88.40
2023-09-14T23:43:00.579Z,88.30
2023-09-14T23:45:25.438Z,88.20
2023-09-14T23:47:48.963Z,88.20
2023-09-14T23:50:14.565Z,88.30
2023-09-14T23:52:38.302Z,88.50
2023-09-14T23:55:06.777Z,88.50
2023-09-14T23:57:30.921Z,88.60
2023-09-14T23:59:54.380Z,88.50
